sensor_id;sensor_type;location;lat;lon;timestamp;P1;durP1;ratioP1;P2;durP2;ratioP2
75061;SDS011;63641;46.526;24.612;2023-10-09T00:01:04;3.67;;;2.80;;
75061;SDS011;63641;46.526;24.612;2023-10-09T00:03:42;4.95;;;3.13;;
75061;SDS011;63641;46.526;24.612;2023-10-09T00:06:11;3.20;;;2.72;;
75061;SDS011;63641;46.526;24.612;2023-10-09T00:08:40;3.45;;;2.50;;
75061;SDS011;63641;46.526;24.612;2023-10-09T00:11:11;2.75;;;2.55;;
75061;SDS011;63641;46.526;24.612;2023-10-09T00:13:41;3.08;;;2.60;;
75061;SDS011;63641;46.526;24.612;2023-10-09T00:16:28;2.70;;;2.50;;
75061;SDS011;63641;46.526;24.612;2023-10-09T00:19:02;4.67;;;2.60;;
75061;SDS011;63641;46.526;24.612;2023-10-09T00:21:56;2.90;;;2.67;;
75061;SDS011;63641;46.526;24.612;2023-10-09T00:24:25;2.80;;;2.60;;
75061;SDS011;63641;46.526;24.612;2023-10-09T00:26:55;5.35;;;2.70;;
75061;SDS011;63641;46.526;24.612;2023-10-09T00:29:48;3.58;;;2.95;;
75061;SDS011;63641;46.526;24.612;2023-10-09T00:32:15;3.50;;;3.20;;
75061;SDS011;63641;46.526;24.612;2023-10-09T00:34:43;3.80;;;2.90;;
75061;SDS011;63641;46.526;24.612;2023-10-09T00:37:10;3.00;;;2.67;;
75061;SDS011;63641;46.526;24.612;2023-10-09T00:39:43;3.85;;;2.80;;
75061;SDS011;63641;46.526;24.612;2023-10-09T00:42:10;3.83;;;2.70;;
75061;SDS011;63641;46.526;24.612;2023-10-09T00:44:43;3.00;;;2.70;;
75061;SDS011;63641;46.526;24.612;2023-10-09T00:47:13;3.33;;;2.97;;
75061;SDS011;63641;46.526;24.612;2023-10-09T00:49:52;3.22;;;2.83;;
75061;SDS011;63641;46.526;24.612;2023-10-09T00:52:28;3.90;;;2.97;;
75061;SDS011;63641;46.526;24.612;2023-10-09T00:55:03;4.03;;;2.80;;
75061;SDS011;63641;46.526;24.612;2023-10-09T00:57:44;3.00;;;2.70;;
75061;SDS011;63641;46.526;24.612;2023-10-09T01:00:24;3.40;;;2.58;;
75061;SDS011;63641;46.526;24.612;2023-10-09T01:03:10;3.42;;;3.13;;
75061;SDS011;63641;46.526;24.612;2023-10-09T01:08:26;3.95;;;2.90;;
75061;SDS011;63641;46.526;24.612;2023-10-09T01:10:59;4.20;;;2.60;;
75061;SDS011;63641;46.526;24.612;2023-10-09T01:13:45;3.05;;;2.60;;
75061;SDS011;63641;46.526;24.612;2023-10-09T01:16:13;4.47;;;2.80;;
75061;SDS011;63641;46.526;24.612;2023-10-09T01:18:45;3.20;;;2.90;;
75061;SDS011;63641;46.526;24.612;2023-10-09T01:21:17;2.85;;;2.63;;
75061;SDS011;63641;46.526;24.612;2023-10-09T01:23:48;4.45;;;3.22;;
75061;SDS011;63641;46.526;24.612;2023-10-09T01:26:37;3.08;;;2.85;;
75061;SDS011;63641;46.526;24.612;2023-10-09T01:29:06;3.25;;;2.47;;
75061;SDS011;63641;46.526;24.612;2023-10-09T01:34:18;3.75;;;2.95;;
75061;SDS011;63641;46.526;24.612;2023-10-09T01:36:46;3.03;;;2.30;;
75061;SDS011;63641;46.526;24.612;2023-10-09T01:39:15;2.75;;;2.55;;
75061;SDS011;63641;46.526;24.612;2023-10-09T01:41:52;3.17;;;2.88;;
75061;SDS011;63641;46.526;24.612;2023-10-09T01:44:27;4.13;;;2.72;;
75061;SDS011;63641;46.526;24.612;2023-10-09T01:49:42;3.35;;;2.55;;
75061;SDS011;63641;46.526;24.612;2023-10-09T01:52:10;3.88;;;3.58;;
75061;SDS011;63641;46.526;24.612;2023-10-09T01:54:45;3.53;;;2.28;;
75061;SDS011;63641;46.526;24.612;2023-10-09T01:57:16;2.67;;;2.47;;
75061;SDS011;63641;46.526;24.612;2023-10-09T01:59:51;6.10;;;3.28;;
75061;SDS011;63641;46.526;24.612;2023-10-09T02:02:22;2.90;;;2.60;;
75061;SDS011;63641;46.526;24.612;2023-10-09T02:04:53;2.95;;;2.40;;
75061;SDS011;63641;46.526;24.612;2023-10-09T02:07:21;3.20;;;2.90;;
75061;SDS011;63641;46.526;24.612;2023-10-09T02:09:54;3.35;;;2.78;;
75061;SDS011;63641;46.526;24.612;2023-10-09T02:12:22;3.70;;;3.03;;
75061;SDS011;63641;46.526;24.612;2023-10-09T02:14:50;3.92;;;3.00;;
75061;SDS011;63641;46.526;24.612;2023-10-09T02:17:22;4.88;;;2.90;;
75061;SDS011;63641;46.526;24.612;2023-10-09T02:19:55;3.33;;;3.03;;
75061;SDS011;63641;46.526;24.612;2023-10-09T02:22:22;4.35;;;3.17;;
75061;SDS011;63641;46.526;24.612;2023-10-09T02:24:52;3.10;;;2.65;;
75061;SDS011;63641;46.526;24.612;2023-10-09T02:27:25;4.18;;;3.78;;
75061;SDS011;63641;46.526;24.612;2023-10-09T02:30:27;4.93;;;3.25;;
75061;SDS011;63641;46.526;24.612;2023-10-09T02:32:55;3.30;;;3.00;;
75061;SDS011;63641;46.526;24.612;2023-10-09T02:35:33;3.78;;;3.15;;
75061;SDS011;63641;46.526;24.612;2023-10-09T02:38:05;5.30;;;2.75;;
75061;SDS011;63641;46.526;24.612;2023-10-09T02:40:41;3.95;;;3.13;;
75061;SDS011;63641;46.526;24.612;2023-10-09T02:43:33;6.43;;;3.22;;
75061;SDS011;63641;46.526;24.612;2023-10-09T02:46:27;5.68;;;3.50;;
75061;SDS011;63641;46.526;24.612;2023-10-09T02:48:57;5.20;;;2.70;;
75061;SDS011;63641;46.526;24.612;2023-10-09T02:51:25;3.65;;;2.90;;
75061;SDS011;63641;46.526;24.612;2023-10-09T02:56:25;3.35;;;3.05;;
75061;SDS011;63641;46.526;24.612;2023-10-09T02:59:06;4.13;;;3.15;;
75061;SDS011;63641;46.526;24.612;2023-10-09T03:01:34;3.72;;;2.78;;
75061;SDS011;63641;46.526;24.612;2023-10-09T03:04:01;3.20;;;2.88;;
75061;SDS011;63641;46.526;24.612;2023-10-09T03:06:32;4.43;;;3.00;;
75061;SDS011;63641;46.526;24.612;2023-10-09T03:09:04;3.33;;;3.03;;
75061;SDS011;63641;46.526;24.612;2023-10-09T03:11:44;3.55;;;2.53;;
75061;SDS011;63641;46.526;24.612;2023-10-09T03:14:20;3.88;;;2.65;;
75061;SDS011;63641;46.526;24.612;2023-10-09T03:16:52;3.50;;;2.88;;
75061;SDS011;63641;46.526;24.612;2023-10-09T03:19:20;3.33;;;2.75;;
75061;SDS011;63641;46.526;24.612;2023-10-09T03:21:47;3.92;;;2.70;;
75061;SDS011;63641;46.526;24.612;2023-10-09T03:24:13;3.33;;;3.03;;
75061;SDS011;63641;46.526;24.612;2023-10-09T03:26:42;2.75;;;2.42;;
75061;SDS011;63641;46.526;24.612;2023-10-09T03:29:12;3.92;;;2.90;;
75061;SDS011;63641;46.526;24.612;2023-10-09T03:31:38;2.97;;;2.60;;
75061;SDS011;63641;46.526;24.612;2023-10-09T03:34:05;4.95;;;2.72;;
75061;SDS011;63641;46.526;24.612;2023-10-09T03:36:34;3.38;;;2.65;;
75061;SDS011;63641;46.526;24.612;2023-10-09T03:39:04;3.92;;;2.72;;
75061;SDS011;63641;46.526;24.612;2023-10-09T03:41:55;3.58;;;2.20;;
75061;SDS011;63641;46.526;24.612;2023-10-09T03:46:55;3.45;;;3.08;;
75061;SDS011;63641;46.526;24.612;2023-10-09T03:49:22;2.95;;;2.70;;
75061;SDS011;63641;46.526;24.612;2023-10-09T03:51:50;4.47;;;3.20;;
75061;SDS011;63641;46.526;24.612;2023-10-09T03:54:17;3.72;;;3.10;;
75061;SDS011;63641;46.526;24.612;2023-10-09T03:56:47;3.67;;;2.95;;
75061;SDS011;63641;46.526;24.612;2023-10-09T03:59:18;3.58;;;2.90;;
75061;SDS011;63641;46.526;24.612;2023-10-09T04:01:47;3.45;;;3.13;;
75061;SDS011;63641;46.526;24.612;2023-10-09T04:04:19;3.50;;;3.20;;
75061;SDS011;63641;46.526;24.612;2023-10-09T04:06:49;3.22;;;2.90;;
75061;SDS011;63641;46.526;24.612;2023-10-09T04:09:19;3.28;;;2.75;;
75061;SDS011;63641;46.526;24.612;2023-10-09T04:11:47;3.15;;;2.85;;
75061;SDS011;63641;46.526;24.612;2023-10-09T04:14:23;4.55;;;2.92;;
75061;SDS011;63641;46.526;24.612;2023-10-09T04:17:13;5.55;;;3.00;;
75061;SDS011;63641;46.526;24.612;2023-10-09T04:19:56;5.15;;;3.50;;
75061;SDS011;63641;46.526;24.612;2023-10-09T04:22:45;3.92;;;3.50;;
75061;SDS011;63641;46.526;24.612;2023-10-09T04:25:26;4.43;;;3.13;;
75061;SDS011;63641;46.526;24.612;2023-10-09T04:27:56;3.63;;;3.33;;
75061;SDS011;63641;46.526;24.612;2023-10-09T04:30:43;4.63;;;3.22;;
75061;SDS011;63641;46.526;24.612;2023-10-09T04:33:13;3.83;;;3.20;;
75061;SDS011;63641;46.526;24.612;2023-10-09T04:36:04;4.38;;;3.00;;
75061;SDS011;63641;46.526;24.612;2023-10-09T04:38:58;4.40;;;2.80;;
75061;SDS011;63641;46.526;24.612;2023-10-09T04:41:29;3.80;;;3.13;;
75061;SDS011;63641;46.526;24.612;2023-10-09T04:44:09;3.38;;;3.00;;
75061;SDS011;63641;46.526;24.612;2023-10-09T04:46:46;3.85;;;3.30;;
75061;SDS011;63641;46.526;24.612;2023-10-09T04:49:32;3.13;;;2.83;;
75061;SDS011;63641;46.526;24.612;2023-10-09T04:52:32;5.07;;;3.67;;
75061;SDS011;63641;46.526;24.612;2023-10-09T04:54:59;4.57;;;3.40;;
75061;SDS011;63641;46.526;24.612;2023-10-09T04:57:39;4.75;;;3.97;;
75061;SDS011;63641;46.526;24.612;2023-10-09T05:00:08;5.47;;;3.58;;
75061;SDS011;63641;46.526;24.612;2023-10-09T05:02:49;7.93;;;5.38;;
75061;SDS011;63641;46.526;24.612;2023-10-09T05:05:31;7.80;;;6.18;;
75061;SDS011;63641;46.526;24.612;2023-10-09T05:10:58;5.53;;;4.53;;
75061;SDS011;63641;46.526;24.612;2023-10-09T05:13:29;4.47;;;3.70;;
75061;SDS011;63641;46.526;24.612;2023-10-09T05:16:22;5.40;;;3.75;;
75061;SDS011;63641;46.526;24.612;2023-10-09T05:18:53;5.88;;;3.95;;
75061;SDS011;63641;46.526;24.612;2023-10-09T05:21:30;6.03;;;4.40;;
75061;SDS011;63641;46.526;24.612;2023-10-09T05:24:00;5.50;;;4.15;;
75061;SDS011;63641;46.526;24.612;2023-10-09T05:26:45;6.03;;;4.47;;
75061;SDS011;63641;46.526;24.612;2023-10-09T05:29:13;8.18;;;4.53;;
75061;SDS011;63641;46.526;24.612;2023-10-09T05:31:59;4.25;;;3.85;;
75061;SDS011;63641;46.526;24.612;2023-10-09T05:34:40;6.68;;;4.43;;
75061;SDS011;63641;46.526;24.612;2023-10-09T05:37:30;9.05;;;4.93;;
75061;SDS011;63641;46.526;24.612;2023-10-09T05:40:00;8.00;;;5.40;;
75061;SDS011;63641;46.526;24.612;2023-10-09T05:42:29;5.47;;;4.82;;
75061;SDS011;63641;46.526;24.612;2023-10-09T05:45:04;6.20;;;5.28;;
75061;SDS011;63641;46.526;24.612;2023-10-09T05:47:49;5.20;;;4.70;;
75061;SDS011;63641;46.526;24.612;2023-10-09T05:50:38;7.72;;;4.90;;
75061;SDS011;63641;46.526;24.612;2023-10-09T05:53:25;6.13;;;5.35;;
75061;SDS011;63641;46.526;24.612;2023-10-09T05:56:10;6.53;;;5.03;;
75061;SDS011;63641;46.526;24.612;2023-10-09T05:58:56;8.23;;;4.90;;
75061;SDS011;63641;46.526;24.612;2023-10-09T06:01:26;6.47;;;5.32;;
75061;SDS011;63641;46.526;24.612;2023-10-09T06:04:11;6.80;;;5.90;;
75061;SDS011;63641;46.526;24.612;2023-10-09T06:06:42;6.97;;;5.28;;
75061;SDS011;63641;46.526;24.612;2023-10-09T06:09:13;6.57;;;5.50;;
75061;SDS011;63641;46.526;24.612;2023-10-09T06:11:42;8.18;;;5.38;;
75061;SDS011;63641;46.526;24.612;2023-10-09T06:14:16;7.97;;;5.55;;
75061;SDS011;63641;46.526;24.612;2023-10-09T06:16:56;8.88;;;7.97;;
75061;SDS011;63641;46.526;24.612;2023-10-09T06:19:24;7.90;;;6.10;;
75061;SDS011;63641;46.526;24.612;2023-10-09T06:21:55;8.43;;;7.22;;
75061;SDS011;63641;46.526;24.612;2023-10-09T06:24:39;10.15;;;6.03;;
75061;SDS011;63641;46.526;24.612;2023-10-09T06:27:19;6.22;;;5.32;;
75061;SDS011;63641;46.526;24.612;2023-10-09T06:29:58;7.47;;;5.10;;
75061;SDS011;63641;46.526;24.612;2023-10-09T06:32:44;7.07;;;4.88;;
75061;SDS011;63641;46.526;24.612;2023-10-09T06:35:17;6.00;;;4.88;;
75061;SDS011;63641;46.526;24.612;2023-10-09T06:37:49;8.05;;;4.50;;
75061;SDS011;63641;46.526;24.612;2023-10-09T06:40:35;4.57;;;4.05;;
75061;SDS011;63641;46.526;24.612;2023-10-09T06:43:19;5.13;;;3.75;;
75061;SDS011;63641;46.526;24.612;2023-10-09T06:45:53;6.20;;;4.55;;
75061;SDS011;63641;46.526;24.612;2023-10-09T06:48:21;5.28;;;3.83;;
75061;SDS011;63641;46.526;24.612;2023-10-09T06:51:07;4.78;;;4.10;;
75061;SDS011;63641;46.526;24.612;2023-10-09T06:53:56;4.50;;;4.10;;
75061;SDS011;63641;46.526;24.612;2023-10-09T06:56:28;4.50;;;4.10;;
75061;SDS011;63641;46.526;24.612;2023-10-09T06:58:56;5.28;;;3.50;;
75061;SDS011;63641;46.526;24.612;2023-10-09T07:01:48;4.53;;;3.90;;
75061;SDS011;63641;46.526;24.612;2023-10-09T07:04:34;4.90;;;3.75;;
75061;SDS011;63641;46.526;24.612;2023-10-09T07:07:01;3.45;;;3.15;;
75061;SDS011;63641;46.526;24.612;2023-10-09T07:09:33;3.67;;;3.10;;
75061;SDS011;63641;46.526;24.612;2023-10-09T07:12:09;3.67;;;2.63;;
75061;SDS011;63641;46.526;24.612;2023-10-09T07:14:41;4.75;;;2.50;;
75061;SDS011;63641;46.526;24.612;2023-10-09T07:17:08;3.28;;;2.90;;
75061;SDS011;63641;46.526;24.612;2023-10-09T07:19:54;3.13;;;2.55;;
75061;SDS011;63641;46.526;24.612;2023-10-09T07:22:21;5.78;;;2.30;;
75061;SDS011;63641;46.526;24.612;2023-10-09T07:24:49;2.95;;;2.30;;
75061;SDS011;63641;46.526;24.612;2023-10-09T07:27:38;5.32;;;2.45;;
75061;SDS011;63641;46.526;24.612;2023-10-09T07:30:13;3.00;;;2.35;;
75061;SDS011;63641;46.526;24.612;2023-10-09T07:33:03;2.60;;;2.38;;
75061;SDS011;63641;46.526;24.612;2023-10-09T07:35:39;2.90;;;2.67;;
75061;SDS011;63641;46.526;24.612;2023-10-09T07:38:11;4.68;;;2.80;;
75061;SDS011;63641;46.526;24.612;2023-10-09T07:40:47;5.32;;;2.72;;
75061;SDS011;63641;46.526;24.612;2023-10-09T07:43:33;3.92;;;2.75;;
75061;SDS011;63641;46.526;24.612;2023-10-09T07:46:14;3.58;;;2.80;;
75061;SDS011;63641;46.526;24.612;2023-10-09T07:49:18;2.92;;;2.50;;
75061;SDS011;63641;46.526;24.612;2023-10-09T07:51:51;3.03;;;2.45;;
75061;SDS011;63641;46.526;24.612;2023-10-09T07:54:22;3.65;;;2.53;;
75061;SDS011;63641;46.526;24.612;2023-10-09T07:56:59;3.05;;;2.60;;
75061;SDS011;63641;46.526;24.612;2023-10-09T07:59:35;3.33;;;2.33;;
75061;SDS011;63641;46.526;24.612;2023-10-09T08:02:07;2.60;;;2.15;;
75061;SDS011;63641;46.526;24.612;2023-10-09T08:04:40;4.43;;;2.85;;
75061;SDS011;63641;46.526;24.612;2023-10-09T08:07:16;2.30;;;2.10;;
75061;SDS011;63641;46.526;24.612;2023-10-09T08:10:06;2.55;;;2.25;;
75061;SDS011;63641;46.526;24.612;2023-10-09T08:12:41;3.58;;;2.67;;
75061;SDS011;63641;46.526;24.612;2023-10-09T08:15:46;2.22;;;2.00;;
75061;SDS011;63641;46.526;24.612;2023-10-09T08:18:19;2.47;;;2.00;;
75061;SDS011;63641;46.526;24.612;2023-10-09T08:20:55;1.67;;;1.58;;
75061;SDS011;63641;46.526;24.612;2023-10-09T08:23:28;2.55;;;1.98;;
75061;SDS011;63641;46.526;24.612;2023-10-09T08:26:15;2.22;;;1.70;;
75061;SDS011;63641;46.526;24.612;2023-10-09T08:28:55;1.65;;;1.55;;
75061;SDS011;63641;46.526;24.612;2023-10-09T08:31:41;2.47;;;1.80;;
75061;SDS011;63641;46.526;24.612;2023-10-09T08:34:12;2.78;;;1.77;;
75061;SDS011;63641;46.526;24.612;2023-10-09T08:37:20;2.03;;;1.80;;
75061;SDS011;63641;46.526;24.612;2023-10-09T08:39:51;2.80;;;1.70;;
75061;SDS011;63641;46.526;24.612;2023-10-09T08:42:18;3.33;;;1.95;;
75061;SDS011;63641;46.526;24.612;2023-10-09T08:44:45;5.15;;;1.92;;
75061;SDS011;63641;46.526;24.612;2023-10-09T08:47:13;1.80;;;1.70;;
75061;SDS011;63641;46.526;24.612;2023-10-09T08:49:40;1.77;;;1.35;;
75061;SDS011;63641;46.526;24.612;2023-10-09T08:52:08;2.90;;;2.00;;
75061;SDS011;63641;46.526;24.612;2023-10-09T08:54:37;1.73;;;1.60;;
75061;SDS011;63641;46.526;24.612;2023-10-09T08:57:04;2.03;;;1.70;;
75061;SDS011;63641;46.526;24.612;2023-10-09T08:59:40;1.83;;;1.60;;
75061;SDS011;63641;46.526;24.612;2023-10-09T09:02:12;2.58;;;2.00;;
75061;SDS011;63641;46.526;24.612;2023-10-09T09:04:41;2.70;;;1.63;;
75061;SDS011;63641;46.526;24.612;2023-10-09T09:07:28;2.70;;;1.73;;
75061;SDS011;63641;46.526;24.612;2023-10-09T09:09:58;2.22;;;1.80;;
75061;SDS011;63641;46.526;24.612;2023-10-09T09:12:44;1.58;;;1.48;;
75061;SDS011;63641;46.526;24.612;2023-10-09T09:15:14;2.55;;;1.70;;
75061;SDS011;63641;46.526;24.612;2023-10-09T09:18:02;3.38;;;1.60;;
75061;SDS011;63641;46.526;24.612;2023-10-09T09:20:37;1.98;;;1.58;;
75061;SDS011;63641;46.526;24.612;2023-10-09T09:23:09;8.23;;;3.33;;
75061;SDS011;63641;46.526;24.612;2023-10-09T09:25:45;3.63;;;2.25;;
75061;SDS011;63641;46.526;24.612;2023-10-09T09:28:15;1.58;;;1.48;;
75061;SDS011;63641;46.526;24.612;2023-10-09T09:30:48;1.80;;;1.65;;
75061;SDS011;63641;46.526;24.612;2023-10-09T09:33:22;1.73;;;1.63;;
75061;SDS011;63641;46.526;24.612;2023-10-09T09:36:06;3.80;;;1.70;;
75061;SDS011;63641;46.526;24.612;2023-10-09T09:38:34;3.65;;;1.73;;
75061;SDS011;63641;46.526;24.612;2023-10-09T09:41:15;2.42;;;1.85;;
75061;SDS011;63641;46.526;24.612;2023-10-09T09:43:54;2.63;;;1.90;;
75061;SDS011;63641;46.526;24.612;2023-10-09T09:46:23;2.50;;;1.90;;
75061;SDS011;63641;46.526;24.612;2023-10-09T09:49:01;2.10;;;1.58;;
75061;SDS011;63641;46.526;24.612;2023-10-09T09:51:29;1.63;;;1.33;;
75061;SDS011;63641;46.526;24.612;2023-10-09T09:53:56;2.22;;;1.50;;
75061;SDS011;63641;46.526;24.612;2023-10-09T09:56:24;2.17;;;1.65;;
75061;SDS011;63641;46.526;24.612;2023-10-09T09:58:52;1.90;;;1.63;;
75061;SDS011;63641;46.526;24.612;2023-10-09T10:01:24;2.85;;;1.70;;
75061;SDS011;63641;46.526;24.612;2023-10-09T10:06:28;2.72;;;1.60;;
75061;SDS011;63641;46.526;24.612;2023-10-09T10:08:58;2.08;;;1.83;;
75061;SDS011;63641;46.526;24.612;2023-10-09T10:11:41;2.45;;;1.40;;
75061;SDS011;63641;46.526;24.612;2023-10-09T10:14:19;3.10;;;1.52;;
75061;SDS011;63641;46.526;24.612;2023-10-09T10:17:02;1.98;;;1.77;;
75061;SDS011;63641;46.526;24.612;2023-10-09T10:22:48;2.47;;;1.70;;
75061;SDS011;63641;46.526;24.612;2023-10-09T10:28:19;2.03;;;1.60;;
75061;SDS011;63641;46.526;24.612;2023-10-09T10:30:55;2.35;;;1.60;;
75061;SDS011;63641;46.526;24.612;2023-10-09T10:33:27;1.92;;;1.60;;
75061;SDS011;63641;46.526;24.612;2023-10-09T10:36:13;1.90;;;1.80;;
75061;SDS011;63641;46.526;24.612;2023-10-09T10:39:25;1.75;;;1.65;;
75061;SDS011;63641;46.526;24.612;2023-10-09T10:41:54;2.17;;;1.67;;
75061;SDS011;63641;46.526;24.612;2023-10-09T10:44:25;3.08;;;1.85;;
75061;SDS011;63641;46.526;24.612;2023-10-09T10:47:14;2.47;;;1.60;;
75061;SDS011;63641;46.526;24.612;2023-10-09T10:49:52;2.45;;;1.60;;
75061;SDS011;63641;46.526;24.612;2023-10-09T10:52:40;1.70;;;1.60;;
75061;SDS011;63641;46.526;24.612;2023-10-09T10:55:12;2.67;;;1.60;;
75061;SDS011;63641;46.526;24.612;2023-10-09T10:57:58;3.08;;;2.10;;
75061;SDS011;63641;46.526;24.612;2023-10-09T11:00:36;3.63;;;1.70;;
75061;SDS011;63641;46.526;24.612;2023-10-09T11:03:22;2.58;;;1.90;;
75061;SDS011;63641;46.526;24.612;2023-10-09T11:06:27;2.38;;;1.70;;
75061;SDS011;63641;46.526;24.612;2023-10-09T11:09:06;1.90;;;1.80;;
75061;SDS011;63641;46.526;24.612;2023-10-09T11:11:50;2.65;;;1.80;;
75061;SDS011;63641;46.526;24.612;2023-10-09T11:14:45;3.30;;;1.85;;
75061;SDS011;63641;46.526;24.612;2023-10-09T11:17:18;3.28;;;2.25;;
75061;SDS011;63641;46.526;24.612;2023-10-09T11:19:51;2.50;;;1.90;;
75061;SDS011;63641;46.526;24.612;2023-10-09T11:22:19;2.58;;;2.10;;
75061;SDS011;63641;46.526;24.612;2023-10-09T11:24:55;2.90;;;1.80;;
75061;SDS011;63641;46.526;24.612;2023-10-09T11:27:39;2.20;;;1.70;;
75061;SDS011;63641;46.526;24.612;2023-10-09T11:30:16;2.53;;;1.80;;
75061;SDS011;63641;46.526;24.612;2023-10-09T11:33:06;2.47;;;1.70;;
75061;SDS011;63641;46.526;24.612;2023-10-09T11:35:41;2.65;;;1.85;;
75061;SDS011;63641;46.526;24.612;2023-10-09T11:38:10;2.97;;;2.13;;
75061;SDS011;63641;46.526;24.612;2023-10-09T11:40:49;3.88;;;1.80;;
75061;SDS011;63641;46.526;24.612;2023-10-09T11:43:20;2.25;;;1.85;;
75061;SDS011;63641;46.526;24.612;2023-10-09T11:45:50;3.40;;;2.20;;
75061;SDS011;63641;46.526;24.612;2023-10-09T11:48:23;2.75;;;2.10;;
75061;SDS011;63641;46.526;24.612;2023-10-09T11:51:13;3.00;;;1.95;;
75061;SDS011;63641;46.526;24.612;2023-10-09T11:53:45;2.53;;;1.80;;
75061;SDS011;63641;46.526;24.612;2023-10-09T11:56:16;4.75;;;1.95;;
75061;SDS011;63641;46.526;24.612;2023-10-09T11:58:49;3.75;;;2.40;;
75061;SDS011;63641;46.526;24.612;2023-10-09T12:01:19;3.33;;;2.08;;
75061;SDS011;63641;46.526;24.612;2023-10-09T12:03:49;3.30;;;2.10;;
75061;SDS011;63641;46.526;24.612;2023-10-09T12:06:18;2.38;;;1.98;;
75061;SDS011;63641;46.526;24.612;2023-10-09T12:08:46;2.28;;;1.90;;
75061;SDS011;63641;46.526;24.612;2023-10-09T12:11:15;3.72;;;2.03;;
75061;SDS011;63641;46.526;24.612;2023-10-09T12:14:00;3.85;;;2.20;;
75061;SDS011;63641;46.526;24.612;2023-10-09T12:16:28;2.63;;;2.00;;
75061;SDS011;63641;46.526;24.612;2023-10-09T12:18:56;4.00;;;2.10;;
75061;SDS011;63641;46.526;24.612;2023-10-09T12:21:23;2.60;;;1.90;;
75061;SDS011;63641;46.526;24.612;2023-10-09T12:23:50;2.55;;;1.80;;
75061;SDS011;63641;46.526;24.612;2023-10-09T12:26:17;2.60;;;1.88;;
75061;SDS011;63641;46.526;24.612;2023-10-09T12:28:44;2.95;;;2.00;;
75061;SDS011;63641;46.526;24.612;2023-10-09T12:31:16;2.58;;;2.10;;
75061;SDS011;63641;46.526;24.612;2023-10-09T12:33:46;3.40;;;2.20;;
75061;SDS011;63641;46.526;24.612;2023-10-09T12:36:14;3.10;;;1.90;;
75061;SDS011;63641;46.526;24.612;2023-10-09T12:38:47;3.88;;;2.20;;
75061;SDS011;63641;46.526;24.612;2023-10-09T12:41:19;3.65;;;2.30;;
75061;SDS011;63641;46.526;24.612;2023-10-09T12:43:56;2.67;;;2.28;;
75061;SDS011;63641;46.526;24.612;2023-10-09T12:46:26;5.18;;;2.20;;
75061;SDS011;63641;46.526;24.612;2023-10-09T12:48:54;4.13;;;2.40;;
75061;SDS011;63641;46.526;24.612;2023-10-09T12:51:22;3.42;;;1.77;;
75061;SDS011;63641;46.526;24.612;2023-10-09T12:56:27;3.00;;;2.20;;
75061;SDS011;63641;46.526;24.612;2023-10-09T12:59:05;2.17;;;1.98;;
75061;SDS011;63641;46.526;24.612;2023-10-09T13:01:33;2.13;;;1.90;;
75061;SDS011;63641;46.526;24.612;2023-10-09T13:04:13;2.20;;;2.00;;
75061;SDS011;63641;46.526;24.612;2023-10-09T13:06:43;3.33;;;2.17;;
75061;SDS011;63641;46.526;24.612;2023-10-09T13:09:14;3.13;;;2.65;;
75061;SDS011;63641;46.526;24.612;2023-10-09T13:11:46;2.20;;;1.80;;
75061;SDS011;63641;46.526;24.612;2023-10-09T13:14:14;2.55;;;2.10;;
75061;SDS011;63641;46.526;24.612;2023-10-09T13:16:48;2.70;;;2.33;;
75061;SDS011;63641;46.526;24.612;2023-10-09T13:19:20;2.47;;;2.08;;
75061;SDS011;63641;46.526;24.612;2023-10-09T13:21:51;2.20;;;2.00;;
75061;SDS011;63641;46.526;24.612;2023-10-09T13:24:18;2.80;;;2.15;;
75061;SDS011;63641;46.526;24.612;2023-10-09T13:26:50;3.33;;;2.00;;
75061;SDS011;63641;46.526;24.612;2023-10-09T13:29:18;2.72;;;1.92;;
75061;SDS011;63641;46.526;24.612;2023-10-09T13:31:49;3.10;;;1.98;;
75061;SDS011;63641;46.526;24.612;2023-10-09T13:34:19;3.05;;;2.25;;
75061;SDS011;63641;46.526;24.612;2023-10-09T13:36:46;3.50;;;2.15;;
75061;SDS011;63641;46.526;24.612;2023-10-09T13:39:31;2.67;;;2.08;;
75061;SDS011;63641;46.526;24.612;2023-10-09T13:42:03;3.10;;;1.80;;
75061;SDS011;63641;46.526;24.612;2023-10-09T13:44:33;4.78;;;1.98;;
75061;SDS011;63641;46.526;24.612;2023-10-09T13:47:01;2.13;;;1.80;;
75061;SDS011;63641;46.526;24.612;2023-10-09T13:49:32;3.65;;;2.30;;
75061;SDS011;63641;46.526;24.612;2023-10-09T13:52:01;3.90;;;2.38;;
75061;SDS011;63641;46.526;24.612;2023-10-09T13:54:30;2.80;;;2.28;;
75061;SDS011;63641;46.526;24.612;2023-10-09T13:57:00;4.30;;;2.30;;
75061;SDS011;63641;46.526;24.612;2023-10-09T13:59:31;2.30;;;1.90;;
75061;SDS011;63641;46.526;24.612;2023-10-09T14:02:01;2.88;;;2.08;;
75061;SDS011;63641;46.526;24.612;2023-10-09T14:04:36;2.90;;;2.00;;
75061;SDS011;63641;46.526;24.612;2023-10-09T14:07:03;2.42;;;2.10;;
75061;SDS011;63641;46.526;24.612;2023-10-09T14:09:32;2.58;;;2.38;;
75061;SDS011;63641;46.526;24.612;2023-10-09T14:12:21;3.63;;;2.42;;
75061;SDS011;63641;46.526;24.612;2023-10-09T14:14:50;4.57;;;2.47;;
75061;SDS011;63641;46.526;24.612;2023-10-09T14:17:21;3.17;;;2.00;;
75061;SDS011;63641;46.526;24.612;2023-10-09T14:19:53;2.80;;;2.42;;
75061;SDS011;63641;46.526;24.612;2023-10-09T14:22:43;3.08;;;2.20;;
75061;SDS011;63641;46.526;24.612;2023-10-09T14:25:12;3.25;;;2.65;;
75061;SDS011;63641;46.526;24.612;2023-10-09T14:27:42;2.63;;;2.38;;
75061;SDS011;63641;46.526;24.612;2023-10-09T14:30:08;3.55;;;2.55;;
75061;SDS011;63641;46.526;24.612;2023-10-09T14:32:39;2.47;;;2.13;;
75061;SDS011;63641;46.526;24.612;2023-10-09T14:35:17;2.67;;;2.20;;
75061;SDS011;63641;46.526;24.612;2023-10-09T14:37:48;3.38;;;2.33;;
75061;SDS011;63641;46.526;24.612;2023-10-09T14:40:15;4.10;;;2.40;;
75061;SDS011;63641;46.526;24.612;2023-10-09T14:42:47;3.08;;;2.70;;
75061;SDS011;63641;46.526;24.612;2023-10-09T14:45:26;3.30;;;2.47;;
75061;SDS011;63641;46.526;24.612;2023-10-09T14:47:54;4.70;;;2.25;;
75061;SDS011;63641;46.526;24.612;2023-10-09T14:50:21;3.90;;;2.10;;
75061;SDS011;63641;46.526;24.612;2023-10-09T14:52:49;3.30;;;2.22;;
75061;SDS011;63641;46.526;24.612;2023-10-09T14:55:17;4.28;;;2.20;;
75061;SDS011;63641;46.526;24.612;2023-10-09T14:57:48;2.88;;;2.33;;
75061;SDS011;63641;46.526;24.612;2023-10-09T15:00:16;3.83;;;2.08;;
75061;SDS011;63641;46.526;24.612;2023-10-09T15:02:50;4.07;;;2.38;;
75061;SDS011;63641;46.526;24.612;2023-10-09T15:05:19;3.15;;;2.10;;
75061;SDS011;63641;46.526;24.612;2023-10-09T15:07:45;4.25;;;2.47;;
75061;SDS011;63641;46.526;24.612;2023-10-09T15:10:13;3.17;;;2.45;;
75061;SDS011;63641;46.526;24.612;2023-10-09T15:12:42;4.72;;;2.40;;
75061;SDS011;63641;46.526;24.612;2023-10-09T15:15:10;3.42;;;2.25;;
75061;SDS011;63641;46.526;24.612;2023-10-09T15:17:41;2.72;;;2.30;;
75061;SDS011;63641;46.526;24.612;2023-10-09T15:22:42;5.07;;;3.22;;
75061;SDS011;63641;46.526;24.612;2023-10-09T15:25:10;3.67;;;2.85;;
75061;SDS011;63641;46.526;24.612;2023-10-09T15:27:44;3.85;;;3.17;;
75061;SDS011;63641;46.526;24.612;2023-10-09T15:30:11;6.78;;;4.30;;
75061;SDS011;63641;46.526;24.612;2023-10-09T15:32:41;7.60;;;3.92;;
75061;SDS011;63641;46.526;24.612;2023-10-09T15:35:11;7.20;;;4.85;;
75061;SDS011;63641;46.526;24.612;2023-10-09T15:37:42;6.05;;;3.38;;
75061;SDS011;63641;46.526;24.612;2023-10-09T15:40:09;8.23;;;5.55;;
75061;SDS011;63641;46.526;24.612;2023-10-09T15:42:45;5.00;;;4.38;;
75061;SDS011;63641;46.526;24.612;2023-10-09T15:45:17;5.63;;;4.40;;
75061;SDS011;63641;46.526;24.612;2023-10-09T15:47:47;6.47;;;4.30;;